Time;durP1;ratioP1;P1;durP2;ratioP2;P2;SDS_P1;SDS_P2;PMS_P1;PMS_P2;Temp;Humidity;BMP_temperature;BMP_pressure;BME280_temperature;BME280_humidity;BME280_pressure;Samples;Min_cycle;Max_cycle;Signal;HPM_P1;HPM_P2
2022/05/08 00:11:52;;;;;;;16.92;11.70;;;;;;;10.83;62.56;100726.88;30873915;28;97000;-76
2022/05/08 00:26:53;;;;;;;18.92;13.95;;;;;;;10.62;63.26;100714.78;30873604;28;97651;-74
2022/05/08 00:41:53;;;;;;;23.48;13.05;;;;;;;10.37;63.60;100716.44;30873772;28;99935;-80
2022/05/08 00:56:54;;;;;;;22.20;13.45;;;;;;;10.18;64.61;100708.63;30875154;28;96770;-81
2022/05/08 01:11:54;;;;;;;17.60;12.03;;;;;;;10.01;65.45;100713.81;30868170;28;96739;-80
2022/05/08 01:26:55;;;;;;;24.83;15.52;;;;;;;9.84;65.91;100715.50;30867585;28;96979;-81
2022/05/08 01:41:55;;;;;;;29.58;14.30;;;;;;;9.66;66.66;100726.13;30865806;28;97280;-79
2022/05/08 01:56:55;;;;;;;23.73;14.18;;;;;;;9.53;67.13;100725.66;30863867;28;112303;-75
2022/05/08 02:11:56;;;;;;;22.23;15.65;;;;;;;9.25;68.32;100731.88;30861332;28;117669;-78
2022/05/08 02:26:56;;;;;;;23.77;14.93;;;;;;;8.93;69.23;100722.50;30860428;28;98495;-79
2022/05/08 02:41:56;;;;;;;19.88;13.38;;;;;;;8.83;69.35;100727.03;30860529;28;96794;-78
2022/05/08 03:12:16;;;;;;;21.33;14.27;;;;;;;8.67;70.43;100740.09;30858151;28;97196;-80
2022/05/08 03:27:16;;;;;;;22.27;14.70;;;;;;;8.68;71.64;100739.06;30854854;28;100161;-79
2022/05/08 03:42:16;;;;;;;24.83;14.52;;;;;;;8.69;71.10;100741.59;30854335;28;112389;-80
2022/05/08 03:57:17;;;;;;;20.70;13.82;;;;;;;8.85;70.67;100748.13;30854221;28;96791;-79
2022/05/08 04:12:17;;;;;;;18.67;13.20;;;;;;;9.09;70.59;100759.09;30850833;28;116462;-79
2022/05/08 04:27:18;;;;;;;18.50;12.63;;;;;;;9.41;70.37;100762.28;30859324;28;96844;-80
2022/05/08 04:42:18;;;;;;;21.35;12.85;;;;;;;9.96;69.21;100766.66;30939753;28;97429;-78
2022/05/08 04:57:18;;;;;;;19.50;11.93;;;;;;;10.61;68.17;100792.22;30871558;28;97512;-82
2022/05/08 05:12:19;;;;;;;14.70;10.05;;;;;;;11.72;65.95;100786.06;30866543;28;97417;-82
2022/05/08 05:27:19;;;;;;;18.27;10.50;;;;;;;12.75;62.66;100797.31;30865374;28;97429;-81
2022/05/08 05:42:20;;;;;;;12.57;8.40;;;;;;;13.81;59.45;100808.69;30863428;28;105344;-81
2022/05/08 05:57:20;;;;;;;12.00;8.27;;;;;;;14.66;56.77;100814.94;30862416;28;96720;-76
2022/05/08 06:12:20;;;;;;;11.38;8.00;;;;;;;15.46;54.03;100813.41;30860437;28;96749;-76
2022/05/08 06:27:21;;;;;;;11.00;7.75;;;;;;;16.17;51.14;100826.22;30857542;28;103415;-77
2022/05/08 06:42:21;;;;;;;10.45;7.05;;;;;;;17.32;49.87;100841.38;30860324;28;96940;-76
2022/05/08 06:57:21;;;;;;;9.25;6.28;;;;;;;18.60;46.69;100841.56;30860172;28;96827;-77
2022/05/08 07:12:23;;;;;;;11.68;6.55;;;;;;;19.72;44.02;100837.19;30853332;28;98362;-78
2022/05/08 07:27:23;;;;;;;9.40;6.27;;;;;;;20.46;41.17;100841.13;30853905;28;96678;-78
2022/05/08 07:42:24;;;;;;;9.93;6.10;;;;;;;21.40;39.08;100842.97;30852886;28;97434;-75
2022/05/08 07:57:24;;;;;;;9.77;5.38;;;;;;;22.63;36.73;100856.31;30851256;28;102523;-78
2022/05/08 08:12:24;;;;;;;8.90;5.23;;;;;;;23.13;34.92;100849.63;30858801;28;114951;-76
2022/05/08 08:27:25;;;;;;;6.77;4.60;;;;;;;24.84;32.23;100856.38;30871179;28;96828;-78
2022/05/08 08:42:30;;;;;;;10.73;5.82;;;;;;;24.85;30.97;100863.50;30871100;28;99936;-74
2022/05/08 08:57:31;;;;;;;8.53;4.60;;;;;;;26.10;28.97;100867.56;30869524;28;97321;-80
2022/05/08 09:12:31;;;;;;;8.02;4.60;;;;;;;27.07;27.17;100876.84;30867189;28;97274;-74
2022/05/08 09:27:31;;;;;;;6.30;4.30;;;;;;;28.46;25.89;100882.78;30865397;28;108097;-74
2022/05/08 09:42:38;;;;;;;5.22;3.63;;;;;;;29.65;23.77;100876.00;30863840;28;96830;-74
2022/05/08 09:57:39;;;;;;;7.20;4.67;;;;;;;29.61;24.42;100869.44;30863812;28;96697;-73
2022/05/08 10:28:08;;;;;;;5.73;3.37;;;;;;;31.84;22.21;100877.38;30865125;28;97095;-81
2022/05/08 10:43:14;;;;;;;7.33;3.27;;;;;;;32.55;21.39;100866.34;30858134;28;96890;-74
2022/05/08 10:58:14;;;;;;;5.90;3.30;;;;;;;32.98;21.34;100855.09;30856902;28;97206;-78
2022/05/08 11:13:17;;;;;;;5.78;3.85;;;;;;;32.96;20.71;100851.84;30854595;28;96704;-81
2022/05/08 11:28:19;;;;;;;6.17;3.13;;;;;;;33.22;20.66;100838.34;30855360;28;96829;-75
2022/05/08 11:43:42;;;;;;;4.83;2.57;;;;;;;33.72;19.96;100839.50;30852786;28;97455;-74
2022/05/08 11:58:42;;;;;;;8.60;2.90;;;;;;;33.49;20.84;100838.63;30852869;28;97021;-84
2022/05/08 12:14:02;;;;;;;6.80;3.20;;;;;;;32.62;21.07;100830.94;30851579;28;96796;-84
2022/05/08 12:29:05;;;;;;;6.00;2.87;;;;;;;32.57;22.28;100833.78;30851277;28;97087;-74
2022/05/08 12:44:06;;;;;;;4.10;2.67;;;;;;;31.21;23.09;100835.22;30849485;28;96713;-74
2022/05/08 13:14:25;;;;;;;6.10;2.93;;;;;;;30.28;25.30;100822.34;30867309;28;96810;-77
2022/05/08 13:29:27;;;;;;;4.68;2.17;;;;;;;30.29;25.36;100821.25;30866176;28;108585;-74
2022/05/08 13:44:28;;;;;;;6.30;2.43;;;;;;;29.92;25.43;100814.34;30863557;28;98559;-75
2022/05/08 13:59:29;;;;;;;4.45;2.28;;;;;;;29.15;25.19;100801.81;30862162;28;114738;-80
2022/05/08 14:14:29;;;;;;;3.77;1.80;;;;;;;28.35;26.55;100806.09;30858364;28;97678;-80
2022/05/08 14:29:29;;;;;;;6.75;1.80;;;;;;;28.34;26.73;100815.38;30860579;28;96817;-81
2022/05/08 14:44:30;;;;;;;3.40;1.67;;;;;;;27.28;27.60;100814.84;30857289;28;102578;-77
2022/05/08 14:59:30;;;;;;;3.17;1.38;;;;;;;26.38;28.73;100819.22;30858941;28;97441;-88
2022/05/08 15:14:30;;;;;;;3.53;2.00;;;;;;;25.70;29.95;100802.41;30856083;28;101596;-75
2022/05/08 15:29:31;;;;;;;3.42;1.58;;;;;;;25.05;31.01;100807.63;30855439;28;109728;-80
2022/05/08 15:44:31;;;;;;;5.25;1.58;;;;;;;24.09;32.33;100823.81;30854145;28;101109;-76
2022/05/08 15:59:33;;;;;;;4.40;1.75;;;;;;;23.39;34.17;100843.91;30853738;28;96738;-76
2022/05/08 16:29:52;;;;;;;4.60;1.97;;;;;;;22.21;36.67;100863.66;30917999;28;96872;-76
2022/05/08 16:44:54;;;;;;;4.43;2.57;;;;;;;21.81;37.67;100881.28;30899785;28;97583;-76
2022/05/08 16:59:55;;;;;;;5.50;3.33;;;;;;;21.40;38.43;100880.09;30869894;28;96636;-83
2022/05/08 17:14:55;;;;;;;3.05;2.17;;;;;;;20.86;39.24;100886.03;30865138;28;96717;-78
2022/05/08 17:29:56;;;;;;;5.28;2.53;;;;;;;20.39;40.42;100901.75;30864374;28;96936;-82
2022/05/08 17:44:56;;;;;;;9.07;2.15;;;;;;;19.97;41.44;100907.63;30863952;28;97047;-81
2022/05/08 17:59:57;;;;;;;6.20;2.50;;;;;;;19.66;42.15;100922.66;30862762;28;97107;-76
2022/05/08 18:14:57;;;;;;;6.15;2.38;;;;;;;19.30;43.07;100937.50;30860083;28;96748;-82
2022/05/08 18:29:57;;;;;;;6.38;2.95;;;;;;;18.81;44.30;100950.38;30859267;28;97443;-79
2022/05/08 18:44:59;;;;;;;5.50;3.22;;;;;;;18.56;44.99;100972.53;30858813;28;96817;-79
2022/05/08 19:00:00;;;;;;;5.93;3.10;;;;;;;18.40;45.09;100991.78;30855437;28;96892;-76
2022/05/08 19:15:00;;;;;;;6.93;2.83;;;;;;;18.24;45.21;101003.75;30854908;28;97147;-80
2022/05/08 19:30:02;;;;;;;5.38;2.80;;;;;;;18.16;45.59;101028.19;30855047;28;97161;-75
2022/05/08 19:45:06;;;;;;;4.70;2.83;;;;;;;18.02;45.83;101032.69;30852555;28;96705;-78
2022/05/08 20:00:07;;;;;;;7.93;3.07;;;;;;;17.77;46.24;101019.66;30851185;28;96867;-75
2022/05/08 20:15:09;;;;;;;4.45;2.50;;;;;;;17.54;46.96;101030.69;30870415;28;97455;-76
2022/05/08 20:30:10;;;;;;;10.23;3.80;;;;;;;17.30;47.66;101037.31;30871748;28;98908;-72
2022/05/08 20:45:11;;;;;;;8.87;4.47;;;;;;;17.14;48.30;101051.88;30870133;28;97796;-75
2022/05/08 21:00:12;;;;;;;5.88;3.47;;;;;;;16.95;48.56;101059.59;30861001;28;97070;-76
2022/05/08 21:15:12;;;;;;;6.37;3.23;;;;;;;16.74;48.77;101061.19;30859295;28;97256;-75
2022/05/08 21:30:12;;;;;;;4.43;3.53;;;;;;;16.26;49.82;101070.72;30866746;28;108792;-76
2022/05/08 21:45:13;;;;;;;17.70;15.65;;;;;;;15.79;51.27;101086.13;30865647;28;96664;-76
2022/05/08 22:00:15;;;;;;;6.65;3.47;;;;;;;15.28;52.32;101089.41;30865252;28;96719;-76
2022/05/08 22:15:16;;;;;;;5.27;3.40;;;;;;;14.92;53.51;101095.38;30863602;28;97445;-76
2022/05/08 22:30:16;;;;;;;6.07;3.55;;;;;;;14.55;54.15;101097.69;30861358;28;96670;-75
2022/05/08 22:45:16;;;;;;;7.53;3.58;;;;;;;14.24;54.91;101098.47;30879859;28;97457;-75
2022/05/08 23:00:17;;;;;;;5.57;4.20;;;;;;;14.02;55.75;101111.59;30860224;28;96770;-76
2022/05/08 23:15:23;;;;;;;9.13;3.97;;;;;;;13.67;55.75;101115.50;30857388;28;96910;-75
2022/05/08 23:30:26;;;;;;;6.87;3.83;;;;;;;13.31;56.49;101107.72;30857598;28;96702;-75
2022/05/08 23:45:27;;;;;;;7.73;3.93;;;;;;;13.05;57.24;101114.03;30854713;28;96906;-76
